sensor_id;sensor_type;location;lat;lon;timestamp;P1;durP1;ratioP1;P2;durP2;ratioP2
42514;SDS011;28144;49.920;18.730;2022-07-04T00:00:22;20.35;;;15.32;;
42514;SDS011;28144;49.920;18.730;2022-07-04T00:03:02;21.65;;;15.75;;
42514;SDS011;28144;49.920;18.730;2022-07-04T00:05:28;20.55;;;15.13;;
42514;SDS011;28144;49.920;18.730;2022-07-04T00:07:53;20.63;;;15.02;;
42514;SDS011;28144;49.920;18.730;2022-07-04T00:10:19;20.17;;;16.30;;
42514;SDS011;28144;49.920;18.730;2022-07-04T00:12:48;20.67;;;16.48;;
42514;SDS011;28144;49.920;18.730;2022-07-04T00:15:15;20.00;;;15.98;;
42514;SDS011;28144;49.920;18.730;2022-07-04T00:17:40;22.45;;;15.75;;
42514;SDS011;28144;49.920;18.730;2022-07-04T00:20:07;29.95;;;22.02;;
42514;SDS011;28144;49.920;18.730;2022-07-04T00:22:34;27.92;;;22.13;;
42514;SDS011;28144;49.920;18.730;2022-07-04T00:25:00;23.25;;;17.67;;
42514;SDS011;28144;49.920;18.730;2022-07-04T00:27:26;21.10;;;15.82;;
42514;SDS011;28144;49.920;18.730;2022-07-04T00:29:51;21.60;;;15.67;;
42514;SDS011;28144;49.920;18.730;2022-07-04T00:32:17;18.17;;;14.87;;
42514;SDS011;28144;49.920;18.730;2022-07-04T00:34:43;20.63;;;16.75;;
42514;SDS011;28144;49.920;18.730;2022-07-04T00:37:09;20.02;;;16.38;;
42514;SDS011;28144;49.920;18.730;2022-07-04T00:39:35;21.13;;;16.77;;
42514;SDS011;28144;49.920;18.730;2022-07-04T00:42:01;23.17;;;17.75;;
42514;SDS011;28144;49.920;18.730;2022-07-04T00:44:27;23.10;;;18.35;;
42514;SDS011;28144;49.920;18.730;2022-07-04T00:46:52;19.10;;;14.83;;
42514;SDS011;28144;49.920;18.730;2022-07-04T00:49:18;25.30;;;18.02;;
42514;SDS011;28144;49.920;18.730;2022-07-04T00:51:44;22.77;;;17.93;;
42514;SDS011;28144;49.920;18.730;2022-07-04T00:54:11;21.23;;;17.17;;
42514;SDS011;28144;49.920;18.730;2022-07-04T00:56:40;20.48;;;16.35;;
42514;SDS011;28144;49.920;18.730;2022-07-04T00:59:06;25.60;;;16.23;;
42514;SDS011;28144;49.920;18.730;2022-07-04T01:01:32;21.60;;;16.40;;
42514;SDS011;28144;49.920;18.730;2022-07-04T01:03:58;20.67;;;16.95;;
42514;SDS011;28144;49.920;18.730;2022-07-04T01:06:24;24.40;;;19.85;;
42514;SDS011;28144;49.920;18.730;2022-07-04T01:08:50;23.03;;;19.47;;
42514;SDS011;28144;49.920;18.730;2022-07-04T01:11:16;21.75;;;16.65;;
42514;SDS011;28144;49.920;18.730;2022-07-04T01:13:42;21.75;;;15.75;;
42514;SDS011;28144;49.920;18.730;2022-07-04T01:16:08;27.25;;;17.15;;
42514;SDS011;28144;49.920;18.730;2022-07-04T01:18:35;21.17;;;16.90;;
42514;SDS011;28144;49.920;18.730;2022-07-04T01:21:01;28.25;;;17.92;;
42514;SDS011;28144;49.920;18.730;2022-07-04T01:23:27;28.20;;;16.85;;
42514;SDS011;28144;49.920;18.730;2022-07-04T01:25:53;22.98;;;15.93;;
42514;SDS011;28144;49.920;18.730;2022-07-04T01:28:19;19.30;;;14.90;;
42514;SDS011;28144;49.920;18.730;2022-07-04T01:30:46;23.85;;;16.95;;
42514;SDS011;28144;49.920;18.730;2022-07-04T01:33:12;25.00;;;18.53;;
42514;SDS011;28144;49.920;18.730;2022-07-04T01:35:37;31.07;;;20.30;;
42514;SDS011;28144;49.920;18.730;2022-07-04T01:38:03;24.83;;;18.77;;
42514;SDS011;28144;49.920;18.730;2022-07-04T01:40:29;22.95;;;17.02;;
42514;SDS011;28144;49.920;18.730;2022-07-04T01:42:54;20.53;;;16.97;;
42514;SDS011;28144;49.920;18.730;2022-07-04T01:45:20;17.87;;;14.23;;
42514;SDS011;28144;49.920;18.730;2022-07-04T01:47:46;18.77;;;14.63;;
42514;SDS011;28144;49.920;18.730;2022-07-04T01:50:12;18.85;;;12.80;;
42514;SDS011;28144;49.920;18.730;2022-07-04T01:52:38;18.88;;;13.85;;
42514;SDS011;28144;49.920;18.730;2022-07-04T01:55:05;16.88;;;13.52;;
42514;SDS011;28144;49.920;18.730;2022-07-04T01:59:57;20.65;;;14.93;;
42514;SDS011;28144;49.920;18.730;2022-07-04T02:02:41;22.73;;;16.88;;
42514;SDS011;28144;49.920;18.730;2022-07-04T02:05:07;21.83;;;16.30;;
42514;SDS011;28144;49.920;18.730;2022-07-04T02:07:33;23.88;;;15.10;;
42514;SDS011;28144;49.920;18.730;2022-07-04T02:09:58;18.00;;;14.60;;
42514;SDS011;28144;49.920;18.730;2022-07-04T02:12:24;18.13;;;14.67;;
42514;SDS011;28144;49.920;18.730;2022-07-04T02:15:08;22.60;;;15.18;;
42514;SDS011;28144;49.920;18.730;2022-07-04T02:17:34;18.07;;;14.30;;
42514;SDS011;28144;49.920;18.730;2022-07-04T02:20:00;19.23;;;14.30;;
42514;SDS011;28144;49.920;18.730;2022-07-04T02:22:26;17.55;;;14.50;;
42514;SDS011;28144;49.920;18.730;2022-07-04T02:24:52;21.00;;;15.43;;
42514;SDS011;28144;49.920;18.730;2022-07-04T02:27:17;22.03;;;15.63;;
42514;SDS011;28144;49.920;18.730;2022-07-04T02:29:43;21.48;;;16.58;;
42514;SDS011;28144;49.920;18.730;2022-07-04T02:32:09;25.23;;;16.67;;
42514;SDS011;28144;49.920;18.730;2022-07-04T02:34:35;25.63;;;17.77;;
42514;SDS011;28144;49.920;18.730;2022-07-04T02:37:01;22.23;;;17.45;;
42514;SDS011;28144;49.920;18.730;2022-07-04T02:39:27;23.33;;;16.98;;
42514;SDS011;28144;49.920;18.730;2022-07-04T02:41:52;27.83;;;17.07;;
42514;SDS011;28144;49.920;18.730;2022-07-04T02:44:18;24.90;;;17.60;;
42514;SDS011;28144;49.920;18.730;2022-07-04T02:46:45;25.38;;;18.90;;
42514;SDS011;28144;49.920;18.730;2022-07-04T02:49:10;31.43;;;19.83;;
42514;SDS011;28144;49.920;18.730;2022-07-04T02:51:36;23.42;;;18.73;;
42514;SDS011;28144;49.920;18.730;2022-07-04T02:54:02;26.25;;;18.98;;
42514;SDS011;28144;49.920;18.730;2022-07-04T02:56:28;26.80;;;18.77;;
42514;SDS011;28144;49.920;18.730;2022-07-04T02:58:54;24.80;;;18.23;;
42514;SDS011;28144;49.920;18.730;2022-07-04T03:01:20;28.73;;;18.43;;
42514;SDS011;28144;49.920;18.730;2022-07-04T03:03:46;26.03;;;18.07;;
42514;SDS011;28144;49.920;18.730;2022-07-04T03:06:12;27.73;;;18.02;;
42514;SDS011;28144;49.920;18.730;2022-07-04T03:08:38;24.27;;;17.02;;
42514;SDS011;28144;49.920;18.730;2022-07-04T03:11:04;26.58;;;17.25;;
42514;SDS011;28144;49.920;18.730;2022-07-04T03:13:31;18.58;;;14.60;;
42514;SDS011;28144;49.920;18.730;2022-07-04T03:15:56;22.02;;;15.52;;
42514;SDS011;28144;49.920;18.730;2022-07-04T03:18:23;20.42;;;15.68;;
42514;SDS011;28144;49.920;18.730;2022-07-04T03:20:49;24.73;;;15.10;;
42514;SDS011;28144;49.920;18.730;2022-07-04T03:23:14;20.87;;;13.97;;
42514;SDS011;28144;49.920;18.730;2022-07-04T03:25:40;22.85;;;14.30;;
42514;SDS011;28144;49.920;18.730;2022-07-04T03:28:07;26.05;;;14.38;;
42514;SDS011;28144;49.920;18.730;2022-07-04T03:30:33;20.92;;;13.40;;
42514;SDS011;28144;49.920;18.730;2022-07-04T03:32:58;14.68;;;12.07;;
42514;SDS011;28144;49.920;18.730;2022-07-04T03:35:25;17.42;;;11.00;;
42514;SDS011;28144;49.920;18.730;2022-07-04T03:37:50;18.38;;;10.73;;
42514;SDS011;28144;49.920;18.730;2022-07-04T03:40:17;15.75;;;12.35;;
42514;SDS011;28144;49.920;18.730;2022-07-04T03:42:43;19.55;;;12.95;;
42514;SDS011;28144;49.920;18.730;2022-07-04T03:45:09;14.73;;;11.97;;
42514;SDS011;28144;49.920;18.730;2022-07-04T03:47:35;17.58;;;13.20;;
42514;SDS011;28144;49.920;18.730;2022-07-04T03:50:01;17.40;;;12.35;;
42514;SDS011;28144;49.920;18.730;2022-07-04T03:52:27;20.55;;;13.63;;
42514;SDS011;28144;49.920;18.730;2022-07-04T03:54:52;19.63;;;13.27;;
42514;SDS011;28144;49.920;18.730;2022-07-04T03:57:19;21.48;;;14.85;;
42514;SDS011;28144;49.920;18.730;2022-07-04T03:59:44;18.47;;;14.00;;
42514;SDS011;28144;49.920;18.730;2022-07-04T04:02:10;18.27;;;13.83;;
42514;SDS011;28144;49.920;18.730;2022-07-04T04:04:35;21.45;;;15.80;;
42514;SDS011;28144;49.920;18.730;2022-07-04T04:07:20;25.98;;;14.70;;
42514;SDS011;28144;49.920;18.730;2022-07-04T04:09:45;33.15;;;21.75;;
42514;SDS011;28144;49.920;18.730;2022-07-04T04:12:11;26.70;;;18.47;;
42514;SDS011;28144;49.920;18.730;2022-07-04T04:14:37;22.03;;;16.20;;
42514;SDS011;28144;49.920;18.730;2022-07-04T04:17:03;24.90;;;17.73;;
42514;SDS011;28144;49.920;18.730;2022-07-04T04:19:28;26.70;;;17.15;;
42514;SDS011;28144;49.920;18.730;2022-07-04T04:21:54;24.35;;;16.73;;
42514;SDS011;28144;49.920;18.730;2022-07-04T04:24:20;22.25;;;17.05;;
42514;SDS011;28144;49.920;18.730;2022-07-04T04:26:46;18.27;;;15.07;;
42514;SDS011;28144;49.920;18.730;2022-07-04T04:29:11;19.43;;;15.53;;
42514;SDS011;28144;49.920;18.730;2022-07-04T04:31:37;20.02;;;16.50;;
42514;SDS011;28144;49.920;18.730;2022-07-04T04:34:03;19.27;;;14.90;;
42514;SDS011;28144;49.920;18.730;2022-07-04T04:36:28;21.83;;;15.50;;
42514;SDS011;28144;49.920;18.730;2022-07-04T04:38:54;21.63;;;15.35;;
42514;SDS011;28144;49.920;18.730;2022-07-04T04:41:20;19.15;;;15.38;;
42514;SDS011;28144;49.920;18.730;2022-07-04T04:43:46;20.60;;;15.40;;
42514;SDS011;28144;49.920;18.730;2022-07-04T04:46:11;23.75;;;16.70;;
42514;SDS011;28144;49.920;18.730;2022-07-04T04:48:37;20.30;;;15.20;;
42514;SDS011;28144;49.920;18.730;2022-07-04T04:51:03;18.90;;;15.50;;
42514;SDS011;28144;49.920;18.730;2022-07-04T04:53:29;16.30;;;14.55;;
42514;SDS011;28144;49.920;18.730;2022-07-04T04:55:54;19.27;;;14.88;;
42514;SDS011;28144;49.920;18.730;2022-07-04T04:58:21;18.42;;;13.68;;
42514;SDS011;28144;49.920;18.730;2022-07-04T05:00:47;14.98;;;13.18;;
42514;SDS011;28144;49.920;18.730;2022-07-04T05:03:18;18.38;;;13.45;;
42514;SDS011;28144;49.920;18.730;2022-07-04T05:05:44;18.92;;;13.77;;
42514;SDS011;28144;49.920;18.730;2022-07-04T05:08:10;16.88;;;13.13;;
42514;SDS011;28144;49.920;18.730;2022-07-04T05:10:38;16.95;;;12.80;;
42514;SDS011;28144;49.920;18.730;2022-07-04T05:13:04;17.15;;;13.00;;
42514;SDS011;28144;49.920;18.730;2022-07-04T05:20:21;19.58;;;13.77;;
42514;SDS011;28144;49.920;18.730;2022-07-04T05:22:47;18.27;;;13.77;;
42514;SDS011;28144;49.920;18.730;2022-07-04T05:25:13;14.77;;;13.20;;
42514;SDS011;28144;49.920;18.730;2022-07-04T05:27:39;17.58;;;13.13;;
42514;SDS011;28144;49.920;18.730;2022-07-04T05:34:56;18.58;;;14.38;;
42514;SDS011;28144;49.920;18.730;2022-07-04T05:37:23;16.00;;;13.23;;
42514;SDS011;28144;49.920;18.730;2022-07-04T05:39:49;15.15;;;12.23;;
42514;SDS011;28144;49.920;18.730;2022-07-04T05:42:15;18.70;;;11.90;;
42514;SDS011;28144;49.920;18.730;2022-07-04T05:44:41;17.15;;;12.52;;
42514;SDS011;28144;49.920;18.730;2022-07-04T05:47:07;15.60;;;12.77;;
42514;SDS011;28144;49.920;18.730;2022-07-04T05:49:33;19.83;;;13.20;;
42514;SDS011;28144;49.920;18.730;2022-07-04T05:51:59;17.27;;;13.80;;
42514;SDS011;28144;49.920;18.730;2022-07-04T05:54:24;16.08;;;11.27;;
42514;SDS011;28144;49.920;18.730;2022-07-04T05:56:50;17.67;;;12.57;;
42514;SDS011;28144;49.920;18.730;2022-07-04T05:59:16;17.83;;;11.60;;
42514;SDS011;28144;49.920;18.730;2022-07-04T06:01:42;13.25;;;11.70;;
42514;SDS011;28144;49.920;18.730;2022-07-04T06:04:08;13.35;;;10.75;;
42514;SDS011;28144;49.920;18.730;2022-07-04T06:06:33;16.25;;;10.93;;
42514;SDS011;28144;49.920;18.730;2022-07-04T06:08:59;17.38;;;11.60;;
42514;SDS011;28144;49.920;18.730;2022-07-04T06:11:25;15.35;;;10.85;;
42514;SDS011;28144;49.920;18.730;2022-07-04T06:16:17;15.70;;;10.43;;
42514;SDS011;28144;49.920;18.730;2022-07-04T06:18:43;12.45;;;10.73;;
42514;SDS011;28144;49.920;18.730;2022-07-04T06:21:09;16.98;;;10.35;;
42514;SDS011;28144;49.920;18.730;2022-07-04T06:23:35;14.95;;;10.48;;
42514;SDS011;28144;49.920;18.730;2022-07-04T06:26:01;13.02;;;10.68;;
42514;SDS011;28144;49.920;18.730;2022-07-04T06:28:27;18.90;;;9.60;;
42514;SDS011;28144;49.920;18.730;2022-07-04T06:30:53;12.32;;;10.00;;
42514;SDS011;28144;49.920;18.730;2022-07-04T06:33:18;10.73;;;9.63;;
42514;SDS011;28144;49.920;18.730;2022-07-04T06:35:44;11.70;;;9.60;;
42514;SDS011;28144;49.920;18.730;2022-07-04T06:38:14;11.80;;;10.40;;
42514;SDS011;28144;49.920;18.730;2022-07-04T06:40:41;11.82;;;10.45;;
42514;SDS011;28144;49.920;18.730;2022-07-04T06:43:07;12.07;;;10.10;;
42514;SDS011;28144;49.920;18.730;2022-07-04T06:45:33;13.98;;;10.40;;
42514;SDS011;28144;49.920;18.730;2022-07-04T06:50:25;14.60;;;9.15;;
42514;SDS011;28144;49.920;18.730;2022-07-04T06:52:51;16.38;;;10.00;;
42514;SDS011;28144;49.920;18.730;2022-07-04T06:55:17;10.65;;;9.60;;
42514;SDS011;28144;49.920;18.730;2022-07-04T06:57:43;13.02;;;10.27;;
42514;SDS011;28144;49.920;18.730;2022-07-04T07:00:09;12.88;;;9.57;;
42514;SDS011;28144;49.920;18.730;2022-07-04T07:02:36;13.23;;;10.20;;
42514;SDS011;28144;49.920;18.730;2022-07-04T07:05:02;16.02;;;9.77;;
42514;SDS011;28144;49.920;18.730;2022-07-04T07:07:29;11.98;;;9.15;;
42514;SDS011;28144;49.920;18.730;2022-07-04T07:12:21;13.23;;;9.05;;
42514;SDS011;28144;49.920;18.730;2022-07-04T07:14:48;10.25;;;8.52;;
42514;SDS011;28144;49.920;18.730;2022-07-04T07:17:14;10.70;;;8.55;;
42514;SDS011;28144;49.920;18.730;2022-07-04T07:19:41;12.70;;;8.90;;
42514;SDS011;28144;49.920;18.730;2022-07-04T07:22:11;13.57;;;8.40;;
42514;SDS011;28144;49.920;18.730;2022-07-04T07:24:37;14.00;;;8.77;;
42514;SDS011;28144;49.920;18.730;2022-07-04T07:27:03;9.95;;;7.80;;
42514;SDS011;28144;49.920;18.730;2022-07-04T07:29:29;11.95;;;8.32;;
42514;SDS011;28144;49.920;18.730;2022-07-04T07:31:55;12.77;;;8.02;;
42514;SDS011;28144;49.920;18.730;2022-07-04T07:34:21;13.98;;;8.05;;
42514;SDS011;28144;49.920;18.730;2022-07-04T07:36:46;12.73;;;7.90;;
42514;SDS011;28144;49.920;18.730;2022-07-04T07:39:12;9.98;;;7.47;;
42514;SDS011;28144;49.920;18.730;2022-07-04T07:41:38;9.40;;;7.35;;
42514;SDS011;28144;49.920;18.730;2022-07-04T07:48:55;12.30;;;7.55;;
42514;SDS011;28144;49.920;18.730;2022-07-04T07:51:20;14.18;;;6.97;;
42514;SDS011;28144;49.920;18.730;2022-07-04T07:58:38;12.55;;;7.32;;
42514;SDS011;28144;49.920;18.730;2022-07-04T08:01:04;12.10;;;6.43;;
42514;SDS011;28144;49.920;18.730;2022-07-04T08:06:14;6.63;;;5.93;;
42514;SDS011;28144;49.920;18.730;2022-07-04T08:08:41;8.90;;;6.30;;
42514;SDS011;28144;49.920;18.730;2022-07-04T08:11:07;9.13;;;5.32;;
42514;SDS011;28144;49.920;18.730;2022-07-04T08:13:33;10.48;;;5.25;;
42514;SDS011;28144;49.920;18.730;2022-07-04T08:18:25;11.02;;;5.95;;
42514;SDS011;28144;49.920;18.730;2022-07-04T08:23:16;10.75;;;5.50;;
42514;SDS011;28144;49.920;18.730;2022-07-04T08:25:42;6.50;;;4.90;;
42514;SDS011;28144;49.920;18.730;2022-07-04T08:30:33;7.95;;;4.97;;
42514;SDS011;28144;49.920;18.730;2022-07-04T08:32:59;5.72;;;4.40;;
42514;SDS011;28144;49.920;18.730;2022-07-04T08:37:51;10.77;;;4.95;;
42514;SDS011;28144;49.920;18.730;2022-07-04T08:40:22;6.28;;;4.40;;
42514;SDS011;28144;49.920;18.730;2022-07-04T08:42:49;7.60;;;3.75;;
42514;SDS011;28144;49.920;18.730;2022-07-04T08:45:15;4.22;;;3.83;;
42514;SDS011;28144;49.920;18.730;2022-07-04T08:47:42;6.97;;;4.70;;
42514;SDS011;28144;49.920;18.730;2022-07-04T08:50:12;5.15;;;4.30;;
42514;SDS011;28144;49.920;18.730;2022-07-04T08:53:11;11.20;;;4.45;;
42514;SDS011;28144;49.920;18.730;2022-07-04T08:55:39;9.13;;;4.18;;
42514;SDS011;28144;49.920;18.730;2022-07-04T08:58:24;6.07;;;4.38;;
42514;SDS011;28144;49.920;18.730;2022-07-04T09:00:51;6.95;;;4.20;;
42514;SDS011;28144;49.920;18.730;2022-07-04T09:03:18;7.03;;;3.70;;
42514;SDS011;28144;49.920;18.730;2022-07-04T09:05:44;6.25;;;3.50;;
42514;SDS011;28144;49.920;18.730;2022-07-04T09:08:11;4.32;;;3.38;;
42514;SDS011;28144;49.920;18.730;2022-07-04T09:13:03;5.25;;;3.83;;
42514;SDS011;28144;49.920;18.730;2022-07-04T09:15:31;6.38;;;3.90;;
42514;SDS011;28144;49.920;18.730;2022-07-04T09:17:57;3.72;;;3.40;;
42514;SDS011;28144;49.920;18.730;2022-07-04T09:20:24;3.55;;;3.25;;
42514;SDS011;28144;49.920;18.730;2022-07-04T09:22:52;4.43;;;3.42;;
42514;SDS011;28144;49.920;18.730;2022-07-04T09:25:18;6.38;;;3.78;;
42514;SDS011;28144;49.920;18.730;2022-07-04T09:27:46;7.13;;;3.45;;
42514;SDS011;28144;49.920;18.730;2022-07-04T09:30:17;6.35;;;3.10;;
42514;SDS011;28144;49.920;18.730;2022-07-04T09:32:45;4.38;;;3.42;;
42514;SDS011;28144;49.920;18.730;2022-07-04T09:37:39;5.43;;;2.67;;
42514;SDS011;28144;49.920;18.730;2022-07-04T09:40:11;4.70;;;2.78;;
42514;SDS011;28144;49.920;18.730;2022-07-04T09:42:53;3.58;;;2.80;;
42514;SDS011;28144;49.920;18.730;2022-07-04T09:45:20;3.97;;;2.83;;
42514;SDS011;28144;49.920;18.730;2022-07-04T09:47:49;4.00;;;2.95;;
42514;SDS011;28144;49.920;18.730;2022-07-04T09:50:17;6.88;;;3.08;;
42514;SDS011;28144;49.920;18.730;2022-07-04T09:52:45;3.75;;;3.13;;
42514;SDS011;28144;49.920;18.730;2022-07-04T09:55:20;5.70;;;3.13;;
42514;SDS011;28144;49.920;18.730;2022-07-04T09:57:46;4.07;;;3.10;;
42514;SDS011;28144;49.920;18.730;2022-07-04T10:00:29;3.30;;;3.00;;
42514;SDS011;28144;49.920;18.730;2022-07-04T10:02:57;5.80;;;3.20;;
42514;SDS011;28144;49.920;18.730;2022-07-04T10:05:40;3.20;;;2.83;;
42514;SDS011;28144;49.920;18.730;2022-07-04T10:08:06;3.63;;;2.50;;
42514;SDS011;28144;49.920;18.730;2022-07-04T10:10:33;2.97;;;2.58;;
42514;SDS011;28144;49.920;18.730;2022-07-04T10:13:01;3.55;;;2.70;;
42514;SDS011;28144;49.920;18.730;2022-07-04T10:15:32;2.67;;;2.47;;
42514;SDS011;28144;49.920;18.730;2022-07-04T10:17:59;2.88;;;2.47;;
42514;SDS011;28144;49.920;18.730;2022-07-04T10:20:25;4.70;;;2.35;;
42514;SDS011;28144;49.920;18.730;2022-07-04T10:22:51;2.13;;;1.95;;
42514;SDS011;28144;49.920;18.730;2022-07-04T10:25:17;4.57;;;2.25;;
42514;SDS011;28144;49.920;18.730;2022-07-04T10:27:43;2.30;;;2.10;;
42514;SDS011;28144;49.920;18.730;2022-07-04T10:30:14;3.25;;;2.00;;
42514;SDS011;28144;49.920;18.730;2022-07-04T10:32:40;7.55;;;2.20;;
42514;SDS011;28144;49.920;18.730;2022-07-04T10:35:08;3.13;;;1.92;;
42514;SDS011;28144;49.920;18.730;2022-07-04T10:40:39;3.92;;;2.22;;
42514;SDS011;28144;49.920;18.730;2022-07-04T10:48:53;3.60;;;2.20;;
42514;SDS011;28144;49.920;18.730;2022-07-04T11:02:29;5.78;;;2.30;;
42514;SDS011;28144;49.920;18.730;2022-07-04T11:18:04;2.47;;;2.00;;
42514;SDS011;28144;49.920;18.730;2022-07-04T11:20:34;3.45;;;2.33;;
42514;SDS011;28144;49.920;18.730;2022-07-04T11:23:05;5.78;;;2.20;;
42514;SDS011;28144;49.920;18.730;2022-07-04T11:25:41;5.50;;;2.65;;
42514;SDS011;28144;49.920;18.730;2022-07-04T11:28:27;4.63;;;2.72;;
42514;SDS011;28144;49.920;18.730;2022-07-04T11:30:58;3.92;;;2.78;;
42514;SDS011;28144;49.920;18.730;2022-07-04T11:33:27;6.47;;;2.45;;
42514;SDS011;28144;49.920;18.730;2022-07-04T11:36:07;4.90;;;2.70;;
42514;SDS011;28144;49.920;18.730;2022-07-04T11:39:09;5.65;;;2.70;;
42514;SDS011;28144;49.920;18.730;2022-07-04T11:41:29;3.88;;;2.20;;
42514;SDS011;28144;49.920;18.730;2022-07-04T11:44:34;1.70;;;1.60;;
42514;SDS011;28144;49.920;18.730;2022-07-04T11:47:20;5.05;;;1.85;;
42514;SDS011;28144;49.920;18.730;2022-07-04T11:52:23;3.97;;;2.28;;
42514;SDS011;28144;49.920;18.730;2022-07-04T11:55:05;3.20;;;1.50;;
42514;SDS011;28144;49.920;18.730;2022-07-04T11:57:36;1.85;;;1.60;;
42514;SDS011;28144;49.920;18.730;2022-07-04T12:02:39;3.03;;;1.92;;
42514;SDS011;28144;49.920;18.730;2022-07-04T12:05:11;6.15;;;1.58;;
42514;SDS011;28144;49.920;18.730;2022-07-04T12:07:38;2.35;;;1.52;;
42514;SDS011;28144;49.920;18.730;2022-07-04T12:10:13;3.17;;;1.55;;
42514;SDS011;28144;49.920;18.730;2022-07-04T12:13:02;2.75;;;1.40;;
42514;SDS011;28144;49.920;18.730;2022-07-04T12:15:38;1.38;;;1.20;;
42514;SDS011;28144;49.920;18.730;2022-07-04T12:18:10;3.05;;;1.42;;
42514;SDS011;28144;49.920;18.730;2022-07-04T12:23:17;2.28;;;1.75;;
42514;SDS011;28144;49.920;18.730;2022-07-04T12:25:47;2.72;;;1.58;;
42514;SDS011;28144;49.920;18.730;2022-07-04T12:28:15;2.58;;;1.50;;
42514;SDS011;28144;49.920;18.730;2022-07-04T12:30:52;3.33;;;1.70;;
42514;SDS011;28144;49.920;18.730;2022-07-04T12:33:22;1.77;;;1.38;;
42514;SDS011;28144;49.920;18.730;2022-07-04T12:35:59;1.75;;;1.50;;
42514;SDS011;28144;49.920;18.730;2022-07-04T12:40:59;3.55;;;1.80;;
42514;SDS011;28144;49.920;18.730;2022-07-04T12:48:56;4.20;;;1.80;;
42514;SDS011;28144;49.920;18.730;2022-07-04T12:53:50;7.75;;;1.60;;
42514;SDS011;28144;49.920;18.730;2022-07-04T12:58:55;2.38;;;1.30;;
42514;SDS011;28144;49.920;18.730;2022-07-04T13:01:21;7.75;;;1.65;;
42514;SDS011;28144;49.920;18.730;2022-07-04T13:03:46;2.63;;;1.52;;
42514;SDS011;28144;49.920;18.730;2022-07-04T13:06:12;4.13;;;1.50;;
42514;SDS011;28144;49.920;18.730;2022-07-04T13:08:38;5.55;;;1.50;;
42514;SDS011;28144;49.920;18.730;2022-07-04T13:13:48;3.45;;;1.98;;
42514;SDS011;28144;49.920;18.730;2022-07-04T13:16:15;3.67;;;1.83;;
42514;SDS011;28144;49.920;18.730;2022-07-04T13:18:40;3.70;;;1.58;;
42514;SDS011;28144;49.920;18.730;2022-07-04T13:23:32;2.20;;;1.70;;
42514;SDS011;28144;49.920;18.730;2022-07-04T13:25:57;2.00;;;1.70;;
42514;SDS011;28144;49.920;18.730;2022-07-04T13:28:23;5.05;;;1.58;;
42514;SDS011;28144;49.920;18.730;2022-07-04T13:33:14;2.67;;;1.73;;
42514;SDS011;28144;49.920;18.730;2022-07-04T13:35:41;2.00;;;1.65;;
42514;SDS011;28144;49.920;18.730;2022-07-04T13:40:32;2.50;;;1.80;;
42514;SDS011;28144;49.920;18.730;2022-07-04T13:42:58;4.03;;;1.92;;
42514;SDS011;28144;49.920;18.730;2022-07-04T13:47:51;3.63;;;1.60;;
42514;SDS011;28144;49.920;18.730;2022-07-04T13:50:17;2.25;;;1.77;;
42514;SDS011;28144;49.920;18.730;2022-07-04T13:52:43;1.65;;;1.40;;
42514;SDS011;28144;49.920;18.730;2022-07-04T13:57:38;4.55;;;1.67;;
42514;SDS011;28144;49.920;18.730;2022-07-04T14:00:04;4.10;;;1.80;;
42514;SDS011;28144;49.920;18.730;2022-07-04T14:02:30;2.83;;;1.70;;
42514;SDS011;28144;49.920;18.730;2022-07-04T14:07:22;1.80;;;1.65;;
42514;SDS011;28144;49.920;18.730;2022-07-04T14:12:13;2.22;;;1.60;;
42514;SDS011;28144;49.920;18.730;2022-07-04T14:17:05;4.32;;;2.47;;
42514;SDS011;28144;49.920;18.730;2022-07-04T14:19:31;2.15;;;1.65;;
42514;SDS011;28144;49.920;18.730;2022-07-04T14:24:23;4.22;;;1.73;;
42514;SDS011;28144;49.920;18.730;2022-07-04T14:26:52;3.95;;;1.98;;
42514;SDS011;28144;49.920;18.730;2022-07-04T14:29:18;3.38;;;1.60;;
42514;SDS011;28144;49.920;18.730;2022-07-04T14:31:44;2.75;;;1.50;;
42514;SDS011;28144;49.920;18.730;2022-07-04T14:34:10;2.22;;;1.73;;
42514;SDS011;28144;49.920;18.730;2022-07-04T14:36:37;1.73;;;1.50;;
42514;SDS011;28144;49.920;18.730;2022-07-04T14:39:03;4.88;;;1.70;;
42514;SDS011;28144;49.920;18.730;2022-07-04T14:41:30;7.40;;;1.80;;
42514;SDS011;28144;49.920;18.730;2022-07-04T14:43:55;2.53;;;1.70;;
42514;SDS011;28144;49.920;18.730;2022-07-04T14:46:21;3.95;;;1.60;;
42514;SDS011;28144;49.920;18.730;2022-07-04T14:48:47;1.90;;;1.77;;
42514;SDS011;28144;49.920;18.730;2022-07-04T14:53:38;3.55;;;1.98;;
42514;SDS011;28144;49.920;18.730;2022-07-04T14:56:03;4.95;;;1.95;;
42514;SDS011;28144;49.920;18.730;2022-07-04T15:00:55;4.72;;;2.05;;
42514;SDS011;28144;49.920;18.730;2022-07-04T15:03:21;3.55;;;1.70;;
42514;SDS011;28144;49.920;18.730;2022-07-04T15:08:16;9.13;;;2.17;;
42514;SDS011;28144;49.920;18.730;2022-07-04T15:10:43;5.03;;;1.65;;
42514;SDS011;28144;49.920;18.730;2022-07-04T15:15:34;4.47;;;1.88;;
42514;SDS011;28144;49.920;18.730;2022-07-04T15:20:27;3.33;;;1.70;;
42514;SDS011;28144;49.920;18.730;2022-07-04T15:23:11;4.20;;;1.80;;
42514;SDS011;28144;49.920;18.730;2022-07-04T15:25:55;2.55;;;1.60;;
42514;SDS011;28144;49.920;18.730;2022-07-04T15:30:46;5.65;;;2.25;;
42514;SDS011;28144;49.920;18.730;2022-07-04T15:35:43;5.10;;;2.38;;
42514;SDS011;28144;49.920;18.730;2022-07-04T15:38:09;3.83;;;1.73;;
42514;SDS011;28144;49.920;18.730;2022-07-04T15:40:36;4.07;;;1.73;;
42514;SDS011;28144;49.920;18.730;2022-07-04T15:45:27;3.72;;;1.90;;
42514;SDS011;28144;49.920;18.730;2022-07-04T15:50:18;2.22;;;1.52;;
42514;SDS011;28144;49.920;18.730;2022-07-04T15:55:09;2.40;;;1.70;;
42514;SDS011;28144;49.920;18.730;2022-07-04T16:00:03;4.38;;;1.90;;
42514;SDS011;28144;49.920;18.730;2022-07-04T16:02:29;2.58;;;1.80;;
42514;SDS011;28144;49.920;18.730;2022-07-04T16:07:20;9.85;;;2.25;;
42514;SDS011;28144;49.920;18.730;2022-07-04T16:12:12;2.95;;;1.80;;
42514;SDS011;28144;49.920;18.730;2022-07-04T16:17:03;7.38;;;1.98;;
42514;SDS011;28144;49.920;18.730;2022-07-04T16:21:55;8.38;;;2.60;;
42514;SDS011;28144;49.920;18.730;2022-07-04T16:26:46;5.82;;;2.47;;
42514;SDS011;28144;49.920;18.730;2022-07-04T16:31:39;12.52;;;5.38;;
42514;SDS011;28144;49.920;18.730;2022-07-04T16:34:05;7.13;;;5.30;;
42514;SDS011;28144;49.920;18.730;2022-07-04T16:38:56;20.60;;;8.10;;
42514;SDS011;28144;49.920;18.730;2022-07-04T16:41:22;16.17;;;8.57;;
42514;SDS011;28144;49.920;18.730;2022-07-04T16:46:13;19.42;;;10.05;;
42514;SDS011;28144;49.920;18.730;2022-07-04T16:51:05;13.27;;;8.93;;
42514;SDS011;28144;49.920;18.730;2022-07-04T16:55:57;17.80;;;9.48;;
42514;SDS011;28144;49.920;18.730;2022-07-04T17:00:48;13.55;;;6.43;;
42514;SDS011;28144;49.920;18.730;2022-07-04T17:03:15;11.98;;;5.63;;
42514;SDS011;28144;49.920;18.730;2022-07-04T17:08:06;9.27;;;4.72;;
42514;SDS011;28144;49.920;18.730;2022-07-04T17:12:58;9.43;;;4.93;;
42514;SDS011;28144;49.920;18.730;2022-07-04T17:17:49;8.18;;;5.00;;
42514;SDS011;28144;49.920;18.730;2022-07-04T17:22:40;6.40;;;3.85;;
42514;SDS011;28144;49.920;18.730;2022-07-04T17:25:07;9.20;;;4.43;;
42514;SDS011;28144;49.920;18.730;2022-07-04T17:30:01;13.43;;;5.32;;
42514;SDS011;28144;49.920;18.730;2022-07-04T17:34:52;18.45;;;4.43;;